Time;durP1;ratioP1;P1;durP2;ratioP2;P2;SDS_P1;SDS_P2;PMS_P1;PMS_P2;Temp;Humidity;BMP_temperature;BMP_pressure;BME280_temperature;BME280_humidity;BME280_pressure;Samples;Min_cycle;Max_cycle;Signal;HPM_P1;HPM_P2
2022/08/03 00:00:53;;;;;;;1.83;1.73;;;;;;;;;;5066704;28;20180;-59
2022/08/03 00:03:19;;;;;;;1.80;1.70;;;;;;;;;;5068813;28;20282;-60
2022/08/03 00:05:45;;;;;;;1.80;1.70;;;;;;;;;;5067583;28;20207;-59
2022/08/03 00:08:11;;;;;;;1.90;1.80;;;;;;;;;;5067716;28;20229;-59
2022/08/03 00:10:37;;;;;;;2.00;1.90;;;;;;;;;;5066613;28;20237;-60
2022/08/03 00:13:03;;;;;;;2.00;1.90;;;;;;;;;;5069036;28;20274;-59
2022/08/03 00:15:29;;;;;;;1.70;1.70;;;;;;;;;;5063703;28;20205;-59
2022/08/03 00:17:55;;;;;;;1.70;1.70;;;;;;;;;;5067209;28;20219;-60
2022/08/03 00:20:21;;;;;;;1.90;1.80;;;;;;;;;;5071763;28;20198;-59
2022/08/03 00:22:47;;;;;;;1.90;1.80;;;;;;;;;;5071782;28;20683;-59
2022/08/03 00:25:13;;;;;;;2.00;1.90;;;;;;;;;;5068075;28;20323;-60
2022/08/03 00:27:39;;;;;;;1.90;1.80;;;;;;;;;;5070330;28;20242;-59
2022/08/03 00:30:05;;;;;;;2.00;1.90;;;;;;;;;;5070473;28;20304;-59
2022/08/03 00:32:31;;;;;;;1.60;1.60;;;;;;;;;;5065593;28;20314;-59
2022/08/03 00:34:57;;;;;;;2.00;1.90;;;;;;;;;;5069496;28;20360;-64
2022/08/03 00:37:23;;;;;;;1.70;1.70;;;;;;;;;;5069538;28;20642;-60
2022/08/03 00:39:49;;;;;;;1.80;1.70;;;;;;;;;;5063751;28;20909;-59
2022/08/03 00:42:15;;;;;;;1.60;1.60;;;;;;;;;;5058415;28;20675;-59
2022/08/03 00:44:41;;;;;;;1.60;1.60;;;;;;;;;;5058889;28;20222;-60
2022/08/03 00:47:07;;;;;;;1.60;1.60;;;;;;;;;;5055958;28;20288;-59
2022/08/03 00:49:33;;;;;;;1.60;1.60;;;;;;;;;;5057622;28;20747;-59
2022/08/03 00:52:00;;;;;;;1.70;1.70;;;;;;;;;;5055764;28;20338;-59
2022/08/03 00:54:26;;;;;;;1.80;1.70;;;;;;;;;;5056042;28;20187;-60
2022/08/03 00:56:52;;;;;;;1.50;1.50;;;;;;;;;;5056868;28;20644;-60
2022/08/03 00:59:18;;;;;;;1.50;1.50;;;;;;;;;;5060584;28;20224;-60
2022/08/03 01:01:44;;;;;;;2.00;1.90;;;;;;;;;;5058432;28;21977;-60
2022/08/03 01:04:10;;;;;;;1.70;1.70;;;;;;;;;;5059286;28;20203;-60
2022/08/03 01:06:54;;;;;;;1.60;1.60;;;;;;;;;;5057402;28;20199;-60
2022/08/03 01:09:43;;;;;;;1.60;1.60;;;;;;;;;;5056977;28;20192;-60
2022/08/03 01:12:24;;;;;;;1.80;1.70;;;;;;;;;;5050606;28;20736;-60
2022/08/03 01:14:56;;;;;;;2.00;1.90;;;;;;;;;;5059510;28;20710;-60
2022/08/03 01:17:27;;;;;;;1.90;1.80;;;;;;;;;;5069435;28;20203;-60
2022/08/03 01:19:53;;;;;;;2.00;1.90;;;;;;;;;;5070808;28;20302;-60
2022/08/03 01:22:28;;;;;;;1.90;1.80;;;;;;;;;;5073387;28;20557;-60
2022/08/03 01:25:09;;;;;;;1.80;1.70;;;;;;;;;;5067493;28;20226;-60
2022/08/03 01:27:54;;;;;;;1.80;1.70;;;;;;;;;;5064496;28;20303;-60
2022/08/03 01:30:20;;;;;;;2.20;2.10;;;;;;;;;;5064189;28;20733;-60
2022/08/03 01:32:54;;;;;;;1.80;1.70;;;;;;;;;;5072680;28;20305;-60
2022/08/03 01:35:27;;;;;;;2.10;2.00;;;;;;;;;;5072482;28;20202;-60
2022/08/03 01:37:57;;;;;;;1.80;1.70;;;;;;;;;;5063654;28;20288;-60
2022/08/03 01:40:24;;;;;;;1.93;1.83;;;;;;;;;;5070793;28;20217;-60
2022/08/03 01:42:50;;;;;;;1.70;1.70;;;;;;;;;;5065434;28;20230;-60
2022/08/03 01:45:18;;;;;;;1.90;1.80;;;;;;;;;;5052782;28;20215;-60
2022/08/03 01:47:45;;;;;;;1.77;1.70;;;;;;;;;;5057722;28;22729;-60
2022/08/03 01:50:11;;;;;;;1.80;1.70;;;;;;;;;;5043265;28;20234;-60
2022/08/03 01:52:37;;;;;;;2.00;1.90;;;;;;;;;;5057376;28;20187;-60
2022/08/03 01:55:03;;;;;;;1.80;1.70;;;;;;;;;;5060651;28;21100;-60
2022/08/03 01:57:29;;;;;;;1.80;1.70;;;;;;;;;;5055598;28;20227;-60
2022/08/03 01:59:55;;;;;;;1.80;1.70;;;;;;;;;;5059079;28;20204;-60
2022/08/03 02:02:21;;;;;;;1.80;1.70;;;;;;;;;;5059368;28;20268;-60
2022/08/03 02:04:47;;;;;;;1.90;1.80;;;;;;;;;;5047242;28;20812;-60
2022/08/03 02:07:13;;;;;;;1.90;1.80;;;;;;;;;;5048228;28;20198;-60
2022/08/03 02:09:39;;;;;;;2.00;1.90;;;;;;;;;;5058287;28;20563;-59
2022/08/03 02:12:07;;;;;;;1.90;1.80;;;;;;;;;;5055821;28;20289;-60
2022/08/03 02:14:33;;;;;;;1.70;1.70;;;;;;;;;;5060592;28;20285;-60
2022/08/03 02:16:59;;;;;;;1.90;1.80;;;;;;;;;;5060426;28;20187;-60
2022/08/03 02:19:25;;;;;;;1.80;1.70;;;;;;;;;;5058526;28;20241;-59
2022/08/03 02:21:51;;;;;;;1.60;1.60;;;;;;;;;;5061383;28;20379;-60
2022/08/03 02:24:17;;;;;;;1.93;1.83;;;;;;;;;;5056606;28;20367;-60
2022/08/03 02:26:43;;;;;;;2.00;1.90;;;;;;;;;;5059679;28;20310;-60
2022/08/03 02:29:11;;;;;;;2.07;1.97;;;;;;;;;;5059956;28;20208;-60
2022/08/03 02:31:37;;;;;;;1.90;1.80;;;;;;;;;;5059883;28;20246;-60
2022/08/03 02:34:04;;;;;;;2.00;1.90;;;;;;;;;;5062741;28;20215;-60
2022/08/03 02:36:30;;;;;;;1.70;1.70;;;;;;;;;;5066404;28;20246;-60
2022/08/03 02:38:58;;;;;;;1.90;1.80;;;;;;;;;;5068686;28;20228;-60
2022/08/03 02:41:27;;;;;;;1.83;1.73;;;;;;;;;;5067716;28;20226;-60
2022/08/03 02:43:54;;;;;;;2.03;1.93;;;;;;;;;;5063385;28;20280;-60
2022/08/03 02:46:20;;;;;;;2.37;2.27;;;;;;;;;;5061662;28;20219;-60
2022/08/03 02:48:46;;;;;;;2.10;2.00;;;;;;;;;;5057648;28;20731;-60
2022/08/03 02:51:12;;;;;;;2.00;1.90;;;;;;;;;;5039336;28;20262;-60
2022/08/03 02:53:38;;;;;;;1.97;1.87;;;;;;;;;;5048373;28;20329;-60
2022/08/03 02:56:04;;;;;;;2.00;1.90;;;;;;;;;;5059320;28;20211;-60
2022/08/03 02:58:30;;;;;;;2.00;1.90;;;;;;;;;;5056678;28;20223;-60
2022/08/03 03:00:56;;;;;;;2.13;2.03;;;;;;;;;;5056143;28;20269;-60
2022/08/03 03:03:22;;;;;;;2.20;2.10;;;;;;;;;;5058802;28;20310;-60
2022/08/03 03:05:48;;;;;;;2.23;2.13;;;;;;;;;;5054493;28;20915;-60
2022/08/03 03:08:14;;;;;;;2.20;2.10;;;;;;;;;;5061402;28;20252;-60
2022/08/03 03:10:40;;;;;;;2.10;2.00;;;;;;;;;;5057788;28;21026;-60
2022/08/03 03:13:06;;;;;;;1.93;1.83;;;;;;;;;;5052975;28;20669;-60
2022/08/03 03:15:34;;;;;;;1.90;1.80;;;;;;;;;;5043099;28;20194;-60
2022/08/03 03:18:00;;;;;;;2.00;1.90;;;;;;;;;;5038570;28;20213;-60
2022/08/03 03:20:26;;;;;;;1.83;1.73;;;;;;;;;;5068301;28;20211;-60
2022/08/03 03:22:52;;;;;;;1.90;1.80;;;;;;;;;;5053091;28;20577;-60
2022/08/03 03:25:18;;;;;;;2.13;2.03;;;;;;;;;;5055957;28;20623;-60
2022/08/03 03:27:44;;;;;;;2.10;2.00;;;;;;;;;;5067528;28;20776;-60
2022/08/03 03:30:10;;;;;;;2.07;1.97;;;;;;;;;;5058040;28;20230;-60
2022/08/03 03:32:38;;;;;;;2.10;2.00;;;;;;;;;;5068052;28;21851;-60
2022/08/03 03:35:04;;;;;;;2.00;1.90;;;;;;;;;;5067796;28;20200;-60
2022/08/03 03:37:30;;;;;;;2.10;2.00;;;;;;;;;;5068289;28;20234;-60
2022/08/03 03:39:56;;;;;;;2.10;2.00;;;;;;;;;;5045939;28;20190;-60
2022/08/03 03:42:22;;;;;;;2.00;1.90;;;;;;;;;;5066666;28;20569;-60
2022/08/03 03:44:48;;;;;;;2.00;1.90;;;;;;;;;;5049165;28;21930;-60
2022/08/03 03:47:14;;;;;;;1.97;1.87;;;;;;;;;;5068438;28;20691;-60
2022/08/03 03:49:41;;;;;;;2.20;2.10;;;;;;;;;;5067442;28;20672;-60
2022/08/03 03:52:07;;;;;;;2.00;1.90;;;;;;;;;;5065364;28;20714;-60
2022/08/03 03:54:40;;;;;;;2.00;1.90;;;;;;;;;;5064360;28;20216;-60
2022/08/03 03:57:06;;;;;;;2.07;1.97;;;;;;;;;;5067660;28;20409;-60
2022/08/03 03:59:32;;;;;;;2.07;1.97;;;;;;;;;;5064929;28;20222;-60
2022/08/03 04:01:58;;;;;;;2.17;2.07;;;;;;;;;;5060640;28;20326;-59
2022/08/03 04:12:37;;;;;;;2.20;2.10;;;;;;;;;;5067569;28;20287;-60
2022/08/03 04:15:04;;;;;;;2.00;1.90;;;;;;;;;;5054299;28;20664;-60
2022/08/03 04:17:29;;;;;;;2.03;1.93;;;;;;;;;;5063831;28;20195;-60
2022/08/03 04:19:55;;;;;;;1.90;1.80;;;;;;;;;;5062746;28;21873;-60
2022/08/03 04:22:25;;;;;;;1.70;1.70;;;;;;;;;;5048418;28;20245;-60
2022/08/03 04:25:05;;;;;;;1.80;1.70;;;;;;;;;;5063242;28;20230;-60
2022/08/03 04:27:40;;;;;;;1.90;1.80;;;;;;;;;;5069533;28;20191;-60
2022/08/03 04:30:06;;;;;;;2.00;1.90;;;;;;;;;;5061469;28;20314;-59
2022/08/03 04:32:32;;;;;;;1.67;1.67;;;;;;;;;;5045998;28;20348;-60
2022/08/03 04:34:58;;;;;;;2.00;1.90;;;;;;;;;;5047386;28;20299;-60
2022/08/03 04:37:32;;;;;;;1.90;1.80;;;;;;;;;;5063281;28;20215;-60
2022/08/03 04:39:58;;;;;;;1.80;1.70;;;;;;;;;;5061845;28;20227;-60
2022/08/03 04:42:24;;;;;;;1.97;1.87;;;;;;;;;;5056557;28;20199;-60
2022/08/03 04:44:50;;;;;;;2.00;1.90;;;;;;;;;;5054287;28;20244;-59
2022/08/03 04:47:16;;;;;;;1.80;1.70;;;;;;;;;;5044618;28;20310;-59
2022/08/03 04:49:41;;;;;;;1.90;1.80;;;;;;;;;;5060866;28;20948;-60
2022/08/03 04:52:08;;;;;;;1.90;1.80;;;;;;;;;;5063524;28;20225;-60
2022/08/03 04:54:43;;;;;;;1.77;1.70;;;;;;;;;;5056951;28;20237;-61
2022/08/03 04:57:10;;;;;;;1.70;1.70;;;;;;;;;;5063828;28;20190;-60
2022/08/03 04:59:36;;;;;;;1.90;1.80;;;;;;;;;;5056964;28;20218;-59
2022/08/03 05:02:02;;;;;;;1.67;1.67;;;;;;;;;;5053491;28;20270;-60
2022/08/03 05:04:28;;;;;;;1.60;1.60;;;;;;;;;;5057063;28;20202;-60
2022/08/03 05:06:53;;;;;;;1.60;1.60;;;;;;;;;;5060307;28;20214;-60
2022/08/03 05:09:19;;;;;;;1.40;1.40;;;;;;;;;;5062847;28;20281;-60
2022/08/03 05:11:45;;;;;;;2.00;1.90;;;;;;;;;;5066645;28;20231;-60
2022/08/03 05:14:11;;;;;;;1.80;1.70;;;;;;;;;;5070624;28;20202;-60
2022/08/03 05:16:37;;;;;;;1.63;1.63;;;;;;;;;;5074133;28;20191;-59
2022/08/03 05:19:03;;;;;;;2.10;2.00;;;;;;;;;;5071260;28;20553;-60
2022/08/03 05:21:29;;;;;;;2.00;1.90;;;;;;;;;;5069473;28;20215;-60
2022/08/03 05:23:55;;;;;;;1.90;1.80;;;;;;;;;;5071046;28;20231;-60
2022/08/03 05:26:21;;;;;;;1.87;1.77;;;;;;;;;;5070322;28;21391;-62
2022/08/03 05:28:47;;;;;;;1.93;1.83;;;;;;;;;;5072413;28;20362;-59
2022/08/03 05:31:13;;;;;;;2.13;2.03;;;;;;;;;;5069864;28;20281;-59
2022/08/03 05:33:39;;;;;;;2.00;1.90;;;;;;;;;;5068710;28;20246;-60
2022/08/03 05:36:05;;;;;;;1.83;1.73;;;;;;;;;;5072798;28;20202;-59
2022/08/03 05:38:32;;;;;;;1.60;1.60;;;;;;;;;;5075969;28;20178;-59
2022/08/03 05:40:58;;;;;;;1.90;1.80;;;;;;;;;;5075193;28;20222;-60
2022/08/03 05:43:24;;;;;;;2.03;1.93;;;;;;;;;;5067628;28;20191;-60
2022/08/03 05:45:50;;;;;;;1.80;1.70;;;;;;;;;;5069438;28;20210;-60
2022/08/03 05:48:16;;;;;;;1.90;1.80;;;;;;;;;;5062916;28;20215;-59
2022/08/03 05:50:41;;;;;;;1.97;1.87;;;;;;;;;;5058021;28;20747;-60
2022/08/03 05:53:07;;;;;;;1.87;1.77;;;;;;;;;;5057766;28;20601;-59
2022/08/03 05:55:33;;;;;;;1.90;1.80;;;;;;;;;;5064882;28;21683;-60
2022/08/03 05:58:02;;;;;;;2.30;2.20;;;;;;;;;;5065977;28;20589;-60
2022/08/03 06:00:28;;;;;;;2.10;2.00;;;;;;;;;;5063404;28;20191;-60
2022/08/03 06:02:54;;;;;;;1.70;1.70;;;;;;;;;;5059743;28;20254;-60
2022/08/03 06:05:20;;;;;;;1.97;1.87;;;;;;;;;;5063835;28;20212;-59
2022/08/03 06:07:46;;;;;;;2.10;2.00;;;;;;;;;;5062313;28;20230;-60
2022/08/03 06:10:11;;;;;;;1.70;1.70;;;;;;;;;;5060227;28;20179;-60
2022/08/03 06:12:40;;;;;;;1.83;1.73;;;;;;;;;;5060757;28;20718;-60
2022/08/03 06:15:06;;;;;;;1.83;1.73;;;;;;;;;;5060947;28;20203;-59
2022/08/03 06:17:32;;;;;;;1.80;1.70;;;;;;;;;;5062645;28;20266;-59
2022/08/03 06:19:58;;;;;;;1.67;1.67;;;;;;;;;;5061332;28;20211;-59
2022/08/03 06:22:24;;;;;;;1.90;1.80;;;;;;;;;;5059786;28;20245;-60
2022/08/03 06:24:49;;;;;;;1.70;1.70;;;;;;;;;;5059344;28;20329;-59
2022/08/03 06:27:15;;;;;;;1.80;1.70;;;;;;;;;;5039890;28;20184;-60
2022/08/03 06:29:41;;;;;;;1.70;1.70;;;;;;;;;;5058999;28;20305;-60
2022/08/03 06:32:07;;;;;;;1.80;1.70;;;;;;;;;;5061562;28;21190;-60
2022/08/03 06:34:33;;;;;;;2.00;1.90;;;;;;;;;;5056934;28;20191;-60
2022/08/03 06:36:59;;;;;;;1.90;1.80;;;;;;;;;;5061546;28;20199;-60
2022/08/03 06:39:25;;;;;;;1.70;1.70;;;;;;;;;;5059209;28;20259;-59
2022/08/03 06:41:52;;;;;;;1.80;1.70;;;;;;;;;;5057795;28;20323;-59
2022/08/03 06:44:18;;;;;;;1.60;1.60;;;;;;;;;;5061537;28;20252;-60
2022/08/03 06:46:44;;;;;;;1.60;1.60;;;;;;;;;;5064119;28;20457;-60
2022/08/03 06:49:10;;;;;;;1.60;1.60;;;;;;;;;;5058546;28;20306;-60
2022/08/03 06:51:36;;;;;;;1.60;1.60;;;;;;;;;;5055219;28;20231;-60
2022/08/03 06:54:02;;;;;;;2.00;1.90;;;;;;;;;;5060678;28;20735;-60
2022/08/03 06:56:28;;;;;;;2.00;1.90;;;;;;;;;;5059535;28;20219;-59
2022/08/03 06:58:54;;;;;;;2.00;1.90;;;;;;;;;;5053663;28;20195;-59
2022/08/03 07:01:20;;;;;;;1.80;1.70;;;;;;;;;;5057488;28;20238;-60
2022/08/03 07:03:46;;;;;;;1.77;1.70;;;;;;;;;;5054750;28;20318;-61
2022/08/03 07:06:12;;;;;;;1.90;1.80;;;;;;;;;;5053408;28;20210;-61
2022/08/03 07:08:38;;;;;;;1.80;1.70;;;;;;;;;;5053141;28;20231;-59
2022/08/03 07:11:04;;;;;;;1.88;1.77;;;;;;;;;;5060402;28;20281;-61
2022/08/03 07:13:30;;;;;;;1.90;1.80;;;;;;;;;;5059811;28;20340;-61
2022/08/03 07:15:56;;;;;;;2.00;1.90;;;;;;;;;;5063010;28;20225;-61
2022/08/03 07:18:22;;;;;;;2.00;1.90;;;;;;;;;;5063608;28;20200;-61
2022/08/03 07:20:48;;;;;;;1.80;1.70;;;;;;;;;;5058226;28;20762;-61
2022/08/03 07:23:14;;;;;;;1.98;1.88;;;;;;;;;;5056868;28;20464;-60
2022/08/03 07:25:40;;;;;;;1.90;1.80;;;;;;;;;;5055987;28;20218;-61
2022/08/03 07:28:07;;;;;;;1.75;1.70;;;;;;;;;;5057280;28;20202;-61
2022/08/03 07:30:34;;;;;;;1.98;1.88;;;;;;;;;;5056630;28;20735;-61
2022/08/03 07:33:00;;;;;;;1.60;1.60;;;;;;;;;;5051833;28;20209;-61
2022/08/03 07:35:26;;;;;;;1.60;1.60;;;;;;;;;;5054185;28;20219;-60
2022/08/03 07:37:52;;;;;;;1.42;1.42;;;;;;;;;;5053088;28;20191;-61
2022/08/03 07:40:18;;;;;;;1.60;1.60;;;;;;;;;;5065284;28;20282;-61
2022/08/03 07:42:44;;;;;;;1.80;1.70;;;;;;;;;;5065188;28;20675;-60
2022/08/03 07:45:10;;;;;;;1.85;1.75;;;;;;;;;;5061119;28;20189;-60
2022/08/03 07:47:36;;;;;;;1.90;1.80;;;;;;;;;;5067255;28;20282;-60
2022/08/03 07:50:03;;;;;;;2.00;1.90;;;;;;;;;;5064620;28;20218;-60
2022/08/03 07:52:51;;;;;;;1.80;1.70;;;;;;;;;;5063746;28;20699;-60
2022/08/03 07:55:21;;;;;;;1.85;1.75;;;;;;;;;;5065774;28;20211;-61
2022/08/03 07:57:47;;;;;;;2.03;1.92;;;;;;;;;;5066676;28;20222;-60
2022/08/03 08:00:15;;;;;;;1.90;1.80;;;;;;;;;;5060065;28;20566;-60
2022/08/03 08:02:41;;;;;;;1.90;1.80;;;;;;;;;;5067679;28;20717;-60
2022/08/03 08:05:07;;;;;;;1.90;1.80;;;;;;;;;;5047303;28;20202;-60
2022/08/03 08:07:33;;;;;;;2.00;1.90;;;;;;;;;;5062042;28;20326;-60
2022/08/03 08:09:59;;;;;;;2.05;1.95;;;;;;;;;;5067368;28;20301;-61
2022/08/03 08:12:25;;;;;;;1.98;1.88;;;;;;;;;;5067970;28;20350;-60
2022/08/03 08:14:51;;;;;;;2.00;1.90;;;;;;;;;;5061575;28;20427;-61
2022/08/03 08:17:18;;;;;;;1.80;1.70;;;;;;;;;;5062340;28;20921;-60
2022/08/03 08:19:44;;;;;;;2.00;1.90;;;;;;;;;;5056213;28;20316;-61
2022/08/03 08:22:10;;;;;;;1.90;1.80;;;;;;;;;;5070814;28;20215;-60
2022/08/03 08:24:36;;;;;;;1.90;1.80;;;;;;;;;;5059345;28;20273;-60
2022/08/03 08:27:02;;;;;;;1.90;1.80;;;;;;;;;;5063737;28;20339;-61
2022/08/03 08:29:28;;;;;;;2.00;1.90;;;;;;;;;;5066904;28;20194;-61
2022/08/03 08:31:56;;;;;;;2.00;1.90;;;;;;;;;;5063684;28;20234;-60
2022/08/03 08:34:22;;;;;;;1.92;1.83;;;;;;;;;;5055681;28;20313;-61
2022/08/03 08:36:48;;;;;;;1.95;1.85;;;;;;;;;;5072254;28;20285;-61
2022/08/03 08:39:14;;;;;;;2.08;1.98;;;;;;;;;;5070421;28;20210;-61
2022/08/03 08:41:40;;;;;;;2.35;2.25;;;;;;;;;;5065211;28;20283;-61
2022/08/03 08:44:07;;;;;;;2.03;1.92;;;;;;;;;;5060685;28;20214;-61
2022/08/03 08:46:33;;;;;;;1.80;1.70;;;;;;;;;;5059372;28;20219;-61
2022/08/03 08:48:59;;;;;;;1.90;1.80;;;;;;;;;;5070599;28;21502;-61
2022/08/03 08:51:29;;;;;;;1.60;1.60;;;;;;;;;;5059335;28;20219;-61
2022/08/03 08:53:55;;;;;;;1.90;1.80;;;;;;;;;;5066542;28;20226;-61
2022/08/03 08:56:24;;;;;;;1.88;1.77;;;;;;;;;;5065064;28;20290;-61
2022/08/03 08:58:56;;;;;;;2.00;1.90;;;;;;;;;;5051148;28;20222;-61
2022/08/03 09:01:22;;;;;;;1.77;1.70;;;;;;;;;;5051885;28;20210;-61
2022/08/03 09:03:48;;;;;;;1.63;1.63;;;;;;;;;;5059197;28;20775;-61
2022/08/03 09:06:14;;;;;;;1.50;1.50;;;;;;;;;;5061332;28;21042;-61
2022/08/03 09:08:40;;;;;;;1.60;1.60;;;;;;;;;;5068361;28;20201;-61
2022/08/03 09:11:06;;;;;;;1.50;1.50;;;;;;;;;;5057840;28;20956;-61
2022/08/03 09:13:33;;;;;;;1.40;1.40;;;;;;;;;;5066650;28;20217;-61
2022/08/03 09:16:12;;;;;;;1.30;1.30;;;;;;;;;;5059462;28;20215;-61
2022/08/03 09:18:38;;;;;;;1.40;1.40;;;;;;;;;;5065343;28;20646;-62
2022/08/03 09:21:13;;;;;;;1.58;1.58;;;;;;;;;;5064834;28;20611;-61
2022/08/03 09:23:46;;;;;;;1.50;1.50;;;;;;;;;;5063905;28;20735;-61
2022/08/03 09:26:13;;;;;;;1.48;1.48;;;;;;;;;;5067752;28;20290;-62
2022/08/03 09:28:38;;;;;;;1.30;1.30;;;;;;;;;;5066113;28;20212;-62
2022/08/03 09:31:05;;;;;;;1.30;1.30;;;;;;;;;;5062152;28;21438;-61
2022/08/03 09:33:31;;;;;;;1.23;1.23;;;;;;;;;;5067320;28;20180;-61
2022/08/03 09:35:57;;;;;;;1.30;1.30;;;;;;;;;;5063879;28;20244;-61
2022/08/03 09:38:26;;;;;;;1.20;1.20;;;;;;;;;;5054298;28;20690;-61
2022/08/03 09:40:52;;;;;;;1.30;1.30;;;;;;;;;;5066823;28;20232;-61
2022/08/03 09:43:17;;;;;;;1.20;1.20;;;;;;;;;;5073564;28;20219;-61
2022/08/03 09:45:44;;;;;;;1.17;1.17;;;;;;;;;;5068307;28;20190;-62
2022/08/03 09:48:22;;;;;;;1.20;1.20;;;;;;;;;;5070555;28;20201;-61
2022/08/03 09:50:55;;;;;;;1.02;1.02;;;;;;;;;;5070615;28;21074;-63
2022/08/03 09:53:21;;;;;;;1.10;1.10;;;;;;;;;;5067113;28;20677;-63
2022/08/03 09:55:56;;;;;;;1.13;1.13;;;;;;;;;;5069203;28;20211;-63
2022/08/03 09:58:23;;;;;;;1.13;1.13;;;;;;;;;;5065872;28;20245;-63
2022/08/03 10:00:59;;;;;;;0.95;0.95;;;;;;;;;;5067368;28;20207;-63
2022/08/03 10:03:25;;;;;;;1.00;1.00;;;;;;;;;;5073533;28;20190;-63
2022/08/03 10:05:51;;;;;;;1.00;1.00;;;;;;;;;;5065614;28;20269;-63
2022/08/03 10:08:18;;;;;;;1.10;1.10;;;;;;;;;;5068306;28;20708;-63
2022/08/03 10:10:44;;;;;;;1.00;1.00;;;;;;;;;;5066796;28;20242;-63
2022/08/03 10:13:11;;;;;;;1.00;1.00;;;;;;;;;;5063156;28;20721;-63
2022/08/03 10:15:38;;;;;;;1.10;1.10;;;;;;;;;;5063631;28;20219;-63
2022/08/03 10:18:04;;;;;;;1.10;1.10;;;;;;;;;;5055473;28;20211;-63
2022/08/03 10:20:30;;;;;;;1.20;1.20;;;;;;;;;;5068374;28;20248;-62
2022/08/03 10:22:56;;;;;;;1.08;1.08;;;;;;;;;;5062542;28;20194;-62
2022/08/03 10:25:22;;;;;;;1.00;1.00;;;;;;;;;;5040840;28;20198;-63
2022/08/03 10:27:48;;;;;;;1.00;1.00;;;;;;;;;;5066393;28;20195;-63
2022/08/03 10:30:14;;;;;;;1.10;1.10;;;;;;;;;;5025025;28;20232;-63
2022/08/03 10:32:41;;;;;;;1.10;1.10;;;;;;;;;;5020351;28;20660;-63
2022/08/03 10:35:07;;;;;;;1.10;1.10;;;;;;;;;;5025615;28;20638;-63
2022/08/03 10:37:36;;;;;;;1.02;1.02;;;;;;;;;;5028693;28;20360;-63
2022/08/03 10:40:02;;;;;;;1.27;1.27;;;;;;;;;;5030797;28;20192;-63
2022/08/03 10:42:30;;;;;;;1.20;1.20;;;;;;;;;;5027632;28;20216;-62
2022/08/03 10:45:01;;;;;;;1.20;1.20;;;;;;;;;;5027664;28;20223;-63
2022/08/03 10:47:27;;;;;;;1.20;1.20;;;;;;;;;;5030678;28;20235;-63
2022/08/03 10:49:53;;;;;;;1.40;1.40;;;;;;;;;;5022233;28;20214;-63
2022/08/03 10:52:19;;;;;;;0.90;0.90;;;;;;;;;;5029009;28;20311;-63
2022/08/03 10:57:45;;;;;;;1.10;1.10;;;;;;;;;;5030885;28;20285;-62
2022/08/03 11:00:18;;;;;;;1.15;1.15;;;;;;;;;;5029012;28;20682;-63
2022/08/03 11:03:03;;;;;;;0.80;0.80;;;;;;;;;;5025582;28;20860;-63
2022/08/03 11:05:30;;;;;;;0.80;0.80;;;;;;;;;;5027256;28;20255;-63
2022/08/03 11:08:14;;;;;;;1.20;1.20;;;;;;;;;;5024502;28;20207;-63
2022/08/03 11:10:40;;;;;;;1.20;1.20;;;;;;;;;;5029803;28;20208;-63
2022/08/03 11:13:06;;;;;;;1.20;1.20;;;;;;;;;;5028489;28;20611;-62
2022/08/03 11:15:33;;;;;;;1.10;1.10;;;;;;;;;;5031032;28;20188;-63
2022/08/03 11:18:11;;;;;;;1.10;1.10;;;;;;;;;;5025468;28;20207;-63
2022/08/03 11:20:43;;;;;;;1.27;1.27;;;;;;;;;;5024541;28;20188;-63
2022/08/03 11:23:09;;;;;;;1.10;1.10;;;;;;;;;;5027331;28;20292;-63
2022/08/03 11:25:54;;;;;;;0.88;0.88;;;;;;;;;;5023581;28;20677;-62
2022/08/03 11:28:29;;;;;;;0.93;0.93;;;;;;;;;;5019384;28;20691;-63
2022/08/03 11:30:55;;;;;;;1.00;1.00;;;;;;;;;;5045594;28;20266;-63
2022/08/03 11:33:30;;;;;;;0.70;0.70;;;;;;;;;;5063084;28;20298;-63
2022/08/03 11:36:00;;;;;;;0.80;0.80;;;;;;;;;;5060941;28;20221;-64
2022/08/03 11:38:26;;;;;;;0.70;0.70;;;;;;;;;;5065345;28;20204;-64
2022/08/03 11:40:52;;;;;;;0.80;0.80;;;;;;;;;;5070143;28;20266;-64
2022/08/03 11:43:32;;;;;;;0.70;0.70;;;;;;;;;;5061648;28;20202;-64
2022/08/03 11:46:00;;;;;;;0.70;0.70;;;;;;;;;;5051003;28;20355;-64
2022/08/03 11:48:27;;;;;;;0.80;0.80;;;;;;;;;;5059429;28;20293;-63
2022/08/03 11:50:53;;;;;;;0.70;0.70;;;;;;;;;;5066262;28;20337;-64
2022/08/03 11:53:19;;;;;;;0.80;0.80;;;;;;;;;;5065638;28;20223;-64
2022/08/03 11:55:47;;;;;;;0.80;0.80;;;;;;;;;;5067507;28;20189;-63
2022/08/03 11:58:17;;;;;;;0.80;0.80;;;;;;;;;;5058051;28;20348;-64
2022/08/03 12:00:43;;;;;;;0.80;0.80;;;;;;;;;;5053199;28;20202;-64
2022/08/03 12:03:13;;;;;;;1.10;1.10;;;;;;;;;;5063917;28;20203;-63
2022/08/03 12:05:39;;;;;;;1.20;1.20;;;;;;;;;;5041804;28;20217;-63
2022/08/03 12:08:05;;;;;;;1.20;1.20;;;;;;;;;;5060077;28;20588;-64
2022/08/03 12:10:31;;;;;;;1.20;1.20;;;;;;;;;;5055497;28;20202;-63
2022/08/03 12:12:57;;;;;;;1.00;1.00;;;;;;;;;;5067550;28;20555;-64
2022/08/03 12:15:26;;;;;;;1.00;1.00;;;;;;;;;;5060033;28;20192;-64
2022/08/03 12:17:52;;;;;;;1.10;1.10;;;;;;;;;;5047471;28;20254;-64
2022/08/03 12:20:22;;;;;;;1.10;1.10;;;;;;;;;;5043817;28;20229;-64
2022/08/03 12:22:48;;;;;;;1.20;1.20;;;;;;;;;;5044030;28;20226;-68
2022/08/03 12:25:24;;;;;;;1.20;1.20;;;;;;;;;;5045284;28;20384;-66
2022/08/03 12:27:50;;;;;;;1.20;1.20;;;;;;;;;;5042976;28;20257;-66
2022/08/03 12:30:16;;;;;;;0.90;0.90;;;;;;;;;;5045789;28;20373;-66
2022/08/03 12:32:42;;;;;;;0.80;0.80;;;;;;;;;;5040850;28;20250;-67
2022/08/03 12:35:08;;;;;;;0.90;0.90;;;;;;;;;;5033939;28;20295;-67
2022/08/03 12:37:34;;;;;;;0.80;0.80;;;;;;;;;;5047059;28;20234;-66
2022/08/03 12:40:02;;;;;;;0.80;0.80;;;;;;;;;;5041698;28;20276;-67
2022/08/03 12:42:31;;;;;;;0.88;0.88;;;;;;;;;;5051796;28;20319;-66
2022/08/03 12:44:57;;;;;;;0.80;0.80;;;;;;;;;;5055994;28;20223;-67
2022/08/03 12:47:23;;;;;;;0.80;0.80;;;;;;;;;;5054684;28;24621;-67
2022/08/03 12:49:49;;;;;;;0.80;0.80;;;;;;;;;;5051207;28;20256;-66
2022/08/03 12:52:15;;;;;;;1.00;1.00;;;;;;;;;;5054305;28;20826;-67
2022/08/03 12:54:42;;;;;;;1.02;1.02;;;;;;;;;;5051248;28;20199;-66
2022/08/03 12:57:09;;;;;;;1.25;1.25;;;;;;;;;;5051530;28;20203;-67
2022/08/03 12:59:35;;;;;;;0.80;0.80;;;;;;;;;;5035488;28;20210;-65
2022/08/03 13:02:02;;;;;;;0.80;0.80;;;;;;;;;;5040934;28;20206;-67
2022/08/03 13:04:29;;;;;;;1.27;1.27;;;;;;;;;;5050522;28;20718;-64
2022/08/03 13:06:58;;;;;;;1.00;1.00;;;;;;;;;;5042642;28;20221;-65
2022/08/03 13:09:27;;;;;;;1.00;1.00;;;;;;;;;;5046894;28;20369;-65
2022/08/03 13:12:05;;;;;;;1.10;1.10;;;;;;;;;;5047438;28;20261;-64
2022/08/03 13:14:31;;;;;;;1.10;1.10;;;;;;;;;;5049811;28;20202;-65
2022/08/03 13:16:57;;;;;;;1.10;1.10;;;;;;;;;;5055138;28;20218;-64
2022/08/03 13:19:23;;;;;;;1.20;1.20;;;;;;;;;;5060310;28;20210;-62
2022/08/03 13:21:49;;;;;;;0.80;0.80;;;;;;;;;;5054099;28;20230;-65
2022/08/03 13:24:15;;;;;;;0.70;0.70;;;;;;;;;;5056026;28;20226;-65
2022/08/03 13:26:41;;;;;;;0.70;0.70;;;;;;;;;;5056886;28;20230;-65
2022/08/03 13:29:07;;;;;;;1.30;1.30;;;;;;;;;;5059262;28;20205;-64
2022/08/03 13:31:33;;;;;;;1.40;1.40;;;;;;;;;;5059619;28;20313;-65
2022/08/03 13:33:59;;;;;;;1.38;1.38;;;;;;;;;;5062400;28;20250;-65
2022/08/03 13:36:25;;;;;;;1.50;1.50;;;;;;;;;;5054296;28;20219;-64
2022/08/03 13:38:51;;;;;;;1.55;1.55;;;;;;;;;;5056642;28;20227;-64
2022/08/03 13:41:17;;;;;;;1.52;1.52;;;;;;;;;;5058071;28;20584;-64
2022/08/03 13:43:43;;;;;;;1.50;1.50;;;;;;;;;;5054702;28;20685;-64
2022/08/03 13:46:09;;;;;;;1.58;1.58;;;;;;;;;;5062557;28;24483;-64
2022/08/03 13:48:34;;;;;;;1.42;1.42;;;;;;;;;;5057756;28;20741;-64
2022/08/03 13:51:00;;;;;;;1.40;1.40;;;;;;;;;;5058310;28;20387;-64
2022/08/03 13:53:26;;;;;;;1.45;1.45;;;;;;;;;;5057394;28;21158;-64
2022/08/03 13:55:52;;;;;;;1.40;1.40;;;;;;;;;;5046661;28;20712;-64
2022/08/03 13:58:18;;;;;;;1.40;1.40;;;;;;;;;;5055935;28;20219;-64
2022/08/03 14:00:44;;;;;;;1.50;1.50;;;;;;;;;;5057676;28;20257;-64
2022/08/03 14:03:10;;;;;;;1.70;1.70;;;;;;;;;;5050177;28;20187;-64
2022/08/03 14:05:37;;;;;;;1.50;1.50;;;;;;;;;;5048112;28;20721;-65
2022/08/03 14:08:05;;;;;;;1.60;1.60;;;;;;;;;;5054402;28;20226;-64
2022/08/03 14:10:35;;;;;;;1.73;1.70;;;;;;;;;;5063903;28;20218;-64
2022/08/03 14:13:01;;;;;;;1.40;1.40;;;;;;;;;;5064747;28;20665;-64
2022/08/03 14:15:27;;;;;;;1.40;1.40;;;;;;;;;;5063381;28;20198;-64
2022/08/03 14:17:53;;;;;;;1.42;1.42;;;;;;;;;;5062686;28;20280;-64
2022/08/03 14:20:19;;;;;;;1.48;1.48;;;;;;;;;;5061811;28;20196;-64
2022/08/03 14:22:45;;;;;;;1.35;1.35;;;;;;;;;;5068456;28;22305;-64
2022/08/03 14:25:11;;;;;;;1.40;1.40;;;;;;;;;;5060788;28;20215;-64
2022/08/03 14:27:37;;;;;;;1.42;1.42;;;;;;;;;;5053521;28;20236;-64
2022/08/03 14:30:03;;;;;;;1.48;1.48;;;;;;;;;;5055324;28;20233;-64
2022/08/03 14:32:29;;;;;;;1.40;1.40;;;;;;;;;;5048389;28;20204;-64
2022/08/03 14:34:55;;;;;;;1.50;1.50;;;;;;;;;;5056808;28;20311;-65
2022/08/03 14:37:21;;;;;;;1.40;1.40;;;;;;;;;;5050754;28;20230;-64
2022/08/03 14:39:47;;;;;;;1.40;1.40;;;;;;;;;;5047341;28;20218;-64
2022/08/03 14:42:14;;;;;;;1.50;1.50;;;;;;;;;;5053816;28;20309;-65
2022/08/03 14:44:40;;;;;;;1.50;1.50;;;;;;;;;;5058789;28;20290;-64
2022/08/03 14:47:06;;;;;;;1.60;1.60;;;;;;;;;;5051330;28;25626;-64
2022/08/03 14:49:32;;;;;;;1.50;1.50;;;;;;;;;;5045154;28;20579;-64
2022/08/03 14:51:58;;;;;;;1.50;1.50;;;;;;;;;;5051044;28;20235;-64
2022/08/03 14:54:24;;;;;;;1.40;1.40;;;;;;;;;;5046522;28;20227;-64